Terminal Aerodrome Forecast
Issued by NWS Wilmington, OH

Current Version | Previous Version | Graphics & Text | Print | Product List | Glossary On
Versions: 1 2 3 4 5 6 7 8 9 10 11 12 13 14 15 16 17 18 19 20 21 22 23 24 25
986
FTUS41 KILN 211129
TAFCVG
TAF
KCVG 211129Z 2112/2218 36008KT 4SM BR BKN006 OVC012
     FM211400 02008KT P6SM OVC015
     FM211600 03008KT P6SM SCT025
     FM211800 02008KT P6SM BKN200
     FM220000 35010KT P6SM BKN100
     FM220800 02010G18KT P6SM SCT250=

USA.gov is the U.S. government's official web portal to all federal, state and local government web resources and services.